createdAt,value
2018-03-28T00:02:15.178Z,99468.88
2018-03-28T00:04:41.700Z,99473.47
2018-03-28T00:07:08.106Z,99470.95
2018-03-28T00:09:34.491Z,99467.22
2018-03-28T00:12:00.865Z,99455.95
2018-03-28T00:14:27.269Z,99447.76
2018-03-28T00:16:53.709Z,99441.97
2018-03-28T00:19:20.089Z,99436.83
2018-03-28T00:21:46.493Z,99439.38
2018-03-28T00:24:12.830Z,99433.95
2018-03-28T00:26:39.182Z,99435.14
2018-03-28T00:29:05.544Z,99433.75
2018-03-28T00:31:31.921Z,99424.91
2018-03-28T00:33:58.278Z,99431.72
2018-03-28T00:36:24.722Z,99439.71
2018-03-28T00:38:51.097Z,99439.31
2018-03-28T00:41:17.558Z,99429.70
2018-03-28T00:43:43.974Z,99434.28
2018-03-28T00:46:10.389Z,99424.93
2018-03-28T00:48:36.839Z,99416.80
2018-03-28T01:04:29.882Z,99409.44
2018-03-28T01:06:56.378Z,99420.77
2018-03-28T01:09:22.762Z,99420.56
2018-03-28T01:11:49.165Z,99416.08
2018-03-28T01:14:15.618Z,99419.39
2018-03-28T01:16:42.041Z,99402.25
2018-03-28T01:19:08.478Z,99418.59
2018-03-28T01:21:34.911Z,99421.05
2018-03-28T01:24:01.298Z,99404.16
2018-03-28T01:26:27.654Z,99397.69
2018-03-28T01:28:54.032Z,99392.77
2018-03-28T01:31:20.457Z,99382.22
2018-03-28T01:33:46.849Z,99385.59
2018-03-28T01:36:13.249Z,99381.94
2018-03-28T01:38:39.653Z,99393.06
2018-03-28T01:41:06.085Z,99384.98
2018-03-28T01:43:32.507Z,99390.03
2018-03-28T01:45:58.878Z,99382.42
2018-03-28T01:48:25.291Z,99374.55
2018-03-28T01:50:51.685Z,99381.64
2018-03-28T01:53:18.076Z,99378.82
2018-03-28T01:55:44.450Z,99380.05
2018-03-28T01:58:10.837Z,99378.99
2018-03-28T02:00:37.230Z,99381.19
2018-03-28T02:03:03.690Z,99386.92
2018-03-28T02:05:30.069Z,99374.66
2018-03-28T02:07:56.454Z,99370.73
2018-03-28T02:10:22.830Z,99371.02
2018-03-28T02:12:49.245Z,99379.88
2018-03-28T02:15:15.621Z,99379.77
2018-03-28T02:17:41.981Z,99375.47
2018-03-28T02:20:08.408Z,99367.10
2018-03-28T02:22:34.785Z,99364.05
2018-03-28T02:25:01.233Z,99368.56
2018-03-28T02:27:27.621Z,99365.20
2018-03-28T02:29:54.050Z,99365.68
2018-03-28T02:32:20.439Z,99363.28
2018-03-28T02:34:46.811Z,99358.61
2018-03-28T02:37:13.242Z,99361.80
2018-03-28T02:39:39.727Z,99367.59
2018-03-28T02:42:06.129Z,99377.60
2018-03-28T02:44:32.521Z,99386.70
2018-03-28T02:46:58.971Z,99381.34
2018-03-28T02:49:25.362Z,99374.27
2018-03-28T02:51:51.822Z,99366.33
2018-03-28T02:54:18.226Z,99361.17
2018-03-28T02:56:44.582Z,99362.57
2018-03-28T02:59:10.964Z,99358.13
2018-03-28T03:01:37.377Z,99368.45
2018-03-28T03:04:03.887Z,99360.06
2018-03-28T03:06:30.306Z,99363.63
2018-03-28T03:08:56.731Z,99355.36
2018-03-28T03:11:23.153Z,99364.00
2018-03-28T03:13:49.557Z,99356.21
2018-03-28T03:16:16.053Z,99342.33
2018-03-28T03:18:42.438Z,99343.41
2018-03-28T03:21:08.797Z,99343.78
2018-03-28T03:23:35.174Z,99347.55
2018-03-28T03:26:01.558Z,99352.05
2018-03-28T03:28:27.938Z,99357.30
2018-03-28T03:30:54.368Z,99363.52
2018-03-28T03:33:20.750Z,99372.27
2018-03-28T03:35:47.107Z,99371.50
2018-03-28T03:38:13.485Z,99373.69
2018-03-28T03:40:39.834Z,99369.36
2018-03-28T03:43:06.187Z,99372.38
2018-03-28T03:45:32.534Z,99380.73
2018-03-28T03:47:58.929Z,99367.25
2018-03-28T03:50:25.317Z,99366.39
2018-03-28T03:52:51.681Z,99371.33
2018-03-28T03:55:18.057Z,99367.33
2018-03-28T03:57:44.413Z,99358.41
2018-03-28T04:00:10.869Z,99355.67
2018-03-28T04:02:37.246Z,99357.37
2018-03-28T04:05:03.646Z,99352.94
2018-03-28T04:07:30.003Z,99355.97
2018-03-28T04:09:56.377Z,99357.94
2018-03-28T04:12:22.809Z,99362.88
2018-03-28T04:14:49.163Z,99364.67
2018-03-28T04:17:15.537Z,99365.23
2018-03-28T04:19:41.969Z,99360.69
2018-03-28T04:22:08.421Z,99355.36
2018-03-28T04:24:34.838Z,99370.55
2018-03-28T04:27:01.278Z,99363.88
2018-03-28T04:29:27.701Z,99362.55
2018-03-28T04:31:54.130Z,99364.75
2018-03-28T04:34:20.478Z,99360.21
2018-03-28T04:36:46.842Z,99362.06
2018-03-28T04:39:13.245Z,99364.02
2018-03-28T04:41:39.601Z,99363.30
2018-03-28T04:44:05.989Z,99370.03
2018-03-28T04:46:32.369Z,99370.58
2018-03-28T04:48:58.776Z,99369.18
2018-03-28T04:51:25.218Z,99379.66
2018-03-28T04:53:51.665Z,99384.66
2018-03-28T04:56:18.052Z,99391.09
2018-03-28T04:58:44.514Z,99396.70
2018-03-28T05:01:10.923Z,99403.02
2018-03-28T05:03:37.317Z,99399.88
2018-03-28T05:06:03.744Z,99403.38
2018-03-28T05:08:30.129Z,99411.14
2018-03-28T05:10:56.584Z,99408.36
2018-03-28T05:13:22.993Z,99409.05
2018-03-28T05:15:49.551Z,99405.56
2018-03-28T05:18:15.954Z,99408.02
2018-03-28T05:20:42.702Z,99407.31
2018-03-28T05:23:09.178Z,99413.38
2018-03-28T05:25:36.250Z,99418.96
2018-03-28T05:28:02.745Z,99419.73
2018-03-28T05:30:29.389Z,99419.17
2018-03-28T05:32:55.907Z,99418.95
2018-03-28T05:35:22.393Z,99415.40
2018-03-28T05:37:48.920Z,99424.53
2018-03-28T05:40:15.390Z,99427.17
2018-03-28T05:42:41.793Z,99430.82
2018-03-28T05:45:08.204Z,99435.53
2018-03-28T05:47:34.686Z,99439.77
2018-03-28T05:50:01.154Z,99442.76
2018-03-28T05:52:32.076Z,99440.02
2018-03-28T05:54:59.040Z,99437.90
2018-03-28T05:57:25.510Z,99433.88
2018-03-28T05:59:52.009Z,99432.66
2018-03-28T06:02:18.462Z,99440.31
2018-03-28T06:04:44.870Z,99439.23
2018-03-28T06:07:11.318Z,99447.98
2018-03-28T06:09:37.749Z,99443.50
2018-03-28T06:12:04.212Z,99444.16
2018-03-28T06:14:30.614Z,99439.91
2018-03-28T06:16:57.051Z,99445.94
2018-03-28T06:19:23.466Z,99443.39
2018-03-28T06:21:49.921Z,99437.95
2018-03-28T06:24:16.386Z,99439.91
2018-03-28T06:26:42.934Z,99440.28
2018-03-28T06:29:09.322Z,99444.77
2018-03-28T06:31:35.697Z,99447.03
2018-03-28T06:34:02.122Z,99446.11
2018-03-28T06:36:28.621Z,99450.50
2018-03-28T06:38:55.169Z,99447.58
2018-03-28T06:41:21.540Z,99451.48
2018-03-28T06:43:47.977Z,99453.69
2018-03-28T06:46:14.397Z,99455.51
2018-03-28T06:48:40.873Z,99455.94
2018-03-28T06:51:07.462Z,99463.91
2018-03-28T06:53:33.866Z,99459.36
2018-03-28T06:56:00.270Z,99469.73
2018-03-28T06:58:26.726Z,99486.14
2018-03-28T07:00:53.178Z,99468.41
2018-03-28T07:03:19.555Z,99468.83
2018-03-28T07:05:46.038Z,99469.05
2018-03-28T07:08:12.494Z,99474.02
2018-03-28T07:10:38.870Z,99473.11
2018-03-28T07:13:05.331Z,99475.06
2018-03-28T07:15:31.709Z,99485.69
2018-03-28T07:17:58.094Z,99487.20
2018-03-28T07:20:24.551Z,99488.50
2018-03-28T07:22:51.038Z,99491.88
2018-03-28T07:25:17.498Z,99491.39
2018-03-28T07:27:44.028Z,99491.39
2018-03-28T07:30:10.487Z,99493.03
2018-03-28T07:32:37.045Z,99491.38
2018-03-28T07:35:03.601Z,99491.43
2018-03-28T07:37:30.091Z,99481.17
2018-03-28T07:39:56.628Z,99482.44
2018-03-28T07:42:23.107Z,99481.56
2018-03-28T07:44:49.626Z,99472.77
2018-03-28T07:47:16.042Z,99472.45
2018-03-28T07:49:42.466Z,99480.45
2018-03-28T07:52:08.929Z,99489.08
2018-03-28T07:54:35.358Z,99473.66
2018-03-28T07:57:01.822Z,99488.52
2018-03-28T07:59:28.227Z,99494.96
2018-03-28T08:01:54.650Z,99496.00
2018-03-28T08:04:21.006Z,99500.08
2018-03-28T08:06:47.460Z,99499.44
2018-03-28T08:09:13.990Z,99499.44
2018-03-28T08:11:40.506Z,99498.97
2018-03-28T08:14:06.953Z,99499.00
2018-03-28T08:16:33.488Z,99498.05
2018-03-28T08:18:59.857Z,99507.41
2018-03-28T08:21:26.301Z,99511.69
2018-03-28T08:23:52.765Z,99505.19
2018-03-28T08:26:19.197Z,99508.23
2018-03-28T08:28:45.624Z,99509.52
2018-03-28T08:31:12.070Z,99513.41
2018-03-28T08:33:38.501Z,99508.33
2018-03-28T08:36:04.901Z,99513.66
2018-03-28T08:38:31.309Z,99517.41
2018-03-28T08:40:57.798Z,99517.95
2018-03-28T08:43:24.238Z,99524.25
2018-03-28T08:45:50.850Z,99529.16
2018-03-28T08:48:17.417Z,99529.00
2018-03-28T08:50:43.898Z,99525.19
2018-03-28T08:53:10.350Z,99522.20
2018-03-28T08:55:36.801Z,99521.17
2018-03-28T08:58:03.234Z,99518.42
2018-03-28T09:00:29.678Z,99516.11
2018-03-28T09:02:56.232Z,99518.63
2018-03-28T09:05:22.696Z,99509.03
2018-03-28T09:07:49.162Z,99512.47
2018-03-28T09:10:15.662Z,99508.95
2018-03-28T09:12:42.174Z,99506.79
2018-03-28T09:15:08.724Z,99500.28
2018-03-28T09:17:35.161Z,99501.45
2018-03-28T09:20:01.641Z,99493.27
2018-03-28T09:22:28.159Z,99498.64
2018-03-28T09:24:54.673Z,99495.71
2018-03-28T09:27:21.205Z,99494.96
2018-03-28T09:29:47.626Z,99490.30
2018-03-28T09:32:14.373Z,99494.75
2018-03-28T09:34:40.833Z,99488.33
2018-03-28T09:37:07.318Z,99489.23
2018-03-28T09:39:33.758Z,99490.74
2018-03-28T09:42:00.122Z,99488.22
2018-03-28T09:44:26.573Z,99486.56
2018-03-28T09:46:54.848Z,99490.77
2018-03-28T09:49:21.981Z,99491.09
2018-03-28T09:51:48.577Z,99485.70
2018-03-28T09:54:14.963Z,99494.70
2018-03-28T09:56:41.442Z,99500.81
2018-03-28T09:59:07.815Z,99499.69
2018-03-28T10:01:34.290Z,99497.84
2018-03-28T10:04:12.779Z,99496.27
2018-03-28T10:06:40.061Z,99487.59
2018-03-28T10:09:06.494Z,99492.77
2018-03-28T10:11:33.066Z,99492.53
2018-03-28T10:13:59.786Z,99486.23
2018-03-28T10:16:26.513Z,99487.25
2018-03-28T10:18:53.113Z,99488.27
2018-03-28T10:21:19.541Z,99480.16
2018-03-28T10:23:46.114Z,99482.67
2018-03-28T10:26:12.770Z,99481.38
2018-03-28T10:28:39.228Z,99478.88
2018-03-28T10:31:05.717Z,99475.41
2018-03-28T10:33:34.062Z,99468.09
2018-03-28T10:36:00.522Z,99467.70
2018-03-28T10:38:27.054Z,99462.20
2018-03-28T10:40:53.474Z,99455.00
2018-03-28T10:43:20.030Z,99464.09
2018-03-28T10:45:46.451Z,99470.28
2018-03-28T10:48:12.870Z,99465.23
2018-03-28T10:50:39.373Z,99467.63
2018-03-28T10:53:05.778Z,99472.63
2018-03-28T10:55:32.246Z,99469.32
2018-03-28T10:57:58.946Z,99459.87
2018-03-28T11:00:25.339Z,99460.31
2018-03-28T11:02:53.917Z,99461.88
2018-03-28T11:05:23.708Z,99463.47
2018-03-28T11:07:50.437Z,99459.00
2018-03-28T11:10:16.890Z,99456.16
2018-03-28T11:12:43.466Z,99449.92
2018-03-28T11:15:09.873Z,99446.38
2018-03-28T11:17:37.456Z,99449.31
2018-03-28T11:20:03.969Z,99450.71
2018-03-28T11:22:30.438Z,99447.33
2018-03-28T11:24:56.938Z,99445.09
2018-03-28T11:27:23.461Z,99441.68
2018-03-28T11:29:49.957Z,99438.72
2018-03-28T11:32:16.346Z,99439.63
2018-03-28T11:34:42.932Z,99439.20
2018-03-28T11:37:09.400Z,99441.48
2018-03-28T11:39:35.991Z,99433.54
2018-03-28T11:42:02.463Z,99431.63
2018-03-28T11:44:28.917Z,99421.02
2018-03-28T11:46:55.372Z,99417.30
2018-03-28T11:49:21.814Z,99417.08
2018-03-28T11:51:48.246Z,99423.30
2018-03-28T11:54:14.695Z,99423.30
2018-03-28T11:56:41.146Z,99416.86
2018-03-28T11:59:07.643Z,99409.23
2018-03-28T12:01:34.173Z,99402.38
2018-03-28T12:04:00.659Z,99407.40
2018-03-28T12:06:27.101Z,99398.77
2018-03-28T12:08:53.538Z,99395.12
2018-03-28T12:11:20.051Z,99399.42
2018-03-28T12:13:46.449Z,99404.33
2018-03-28T12:16:12.834Z,99404.33
2018-03-28T12:18:39.366Z,99395.17
2018-03-28T12:21:05.774Z,99393.39
2018-03-28T12:23:32.283Z,99388.75
2018-03-28T12:25:58.780Z,99387.93
2018-03-28T12:28:27.095Z,99384.69
2018-03-28T12:30:53.566Z,99379.29
2018-03-28T12:33:23.060Z,99381.38
2018-03-28T12:35:51.330Z,99376.58
2018-03-28T12:38:21.566Z,99383.67
2018-03-28T12:40:55.874Z,99385.57
2018-03-28T12:43:32.065Z,99385.23
2018-03-28T12:46:05.182Z,99379.47
2018-03-28T12:48:34.289Z,99373.33
2018-03-28T12:51:01.962Z,99373.25
2018-03-28T12:53:30.164Z,99369.83
2018-03-28T12:55:56.950Z,99371.66
2018-03-28T12:58:23.474Z,99381.30
2018-03-28T13:00:51.754Z,99377.66
2018-03-28T13:03:18.290Z,99377.38
2018-03-28T13:05:44.659Z,99371.75
2018-03-28T13:08:11.113Z,99375.84
2018-03-28T13:10:37.512Z,99373.94
2018-03-28T13:13:17.986Z,99371.33
2018-03-28T13:15:44.465Z,99372.71
2018-03-28T13:18:11.012Z,99373.48
2018-03-28T13:20:37.542Z,99369.17
2018-03-28T13:23:03.946Z,99370.13
2018-03-28T13:25:30.548Z,99366.94
2018-03-28T13:27:56.949Z,99358.77
2018-03-28T13:30:23.412Z,99360.46
2018-03-28T13:32:49.884Z,99361.00
2018-03-28T13:35:16.249Z,99355.41
2018-03-28T13:37:42.764Z,99337.39
2018-03-28T13:40:09.189Z,99344.06
2018-03-28T13:42:35.626Z,99339.64
2018-03-28T13:45:02.094Z,99336.48
2018-03-28T13:47:28.517Z,99343.09
2018-03-28T13:49:55.018Z,99346.56
2018-03-28T13:52:21.545Z,99343.34
2018-03-28T13:54:47.968Z,99349.56
2018-03-28T13:57:14.377Z,99342.58
2018-03-28T13:59:40.872Z,99337.42
2018-03-28T14:02:07.333Z,99323.70
2018-03-28T14:04:34.609Z,99322.34
2018-03-28T14:07:07.009Z,99325.47
2018-03-28T14:09:35.556Z,99320.39
2018-03-28T14:12:05.561Z,99319.98
2018-03-28T14:14:35.737Z,99309.96
2018-03-28T14:17:02.334Z,99307.67
2018-03-28T14:19:29.920Z,99303.06
2018-03-28T14:21:56.308Z,99309.78
2018-03-28T14:24:22.782Z,99302.14
2018-03-28T14:26:49.362Z,99298.34
2018-03-28T14:29:15.930Z,99291.54
2018-03-28T14:31:42.409Z,99301.44
2018-03-28T14:34:08.854Z,99296.26
2018-03-28T14:36:35.344Z,99294.27
2018-03-28T14:39:01.726Z,99295.06
2018-03-28T14:41:28.481Z,99299.50
2018-03-28T14:43:54.861Z,99301.29
2018-03-28T14:46:21.350Z,99307.97
2018-03-28T14:48:47.775Z,99309.16
2018-03-28T14:51:14.194Z,99314.32
2018-03-28T14:53:40.749Z,99308.59
2018-03-28T14:56:07.233Z,99310.39
2018-03-28T14:58:33.777Z,99312.75
2018-03-28T15:01:00.228Z,99305.21
2018-03-28T15:03:26.609Z,99312.39
2018-03-28T15:05:53.016Z,99312.46
2018-03-28T15:08:19.447Z,99308.95
2018-03-28T15:10:45.842Z,99304.91
2018-03-28T15:13:12.312Z,99303.53
2018-03-28T15:15:38.748Z,99304.70
2018-03-28T15:18:05.118Z,99304.64
2018-03-28T15:20:31.656Z,99308.03
2018-03-28T15:22:58.114Z,99311.69
2018-03-28T15:25:24.670Z,99299.91
2018-03-28T15:27:51.201Z,99296.26
2018-03-28T15:30:17.655Z,99296.23
2018-03-28T15:32:44.126Z,99292.03
2018-03-28T15:35:10.549Z,99288.48
2018-03-28T15:37:36.986Z,99291.42
2018-03-28T15:40:03.473Z,99291.91
2018-03-28T15:42:29.998Z,99295.13
2018-03-28T15:44:56.847Z,99293.75
2018-03-28T15:47:23.469Z,99290.36
2018-03-28T15:49:49.833Z,99290.91
2018-03-28T15:52:16.280Z,99279.11
2018-03-28T15:54:42.714Z,99279.94
2018-03-28T15:57:09.108Z,99274.78
2018-03-28T15:59:35.526Z,99281.85
2018-03-28T16:02:01.933Z,99283.66
2018-03-28T16:04:28.369Z,99288.31
2018-03-28T16:06:54.754Z,99279.89
2018-03-28T16:09:21.133Z,99277.30
2018-03-28T16:11:47.605Z,99287.09
2018-03-28T16:14:13.993Z,99289.28
2018-03-28T16:16:40.429Z,99290.19
2018-03-28T16:19:06.965Z,99293.84
2018-03-28T16:21:33.361Z,99298.27
2018-03-28T16:23:59.735Z,99298.78
2018-03-28T16:26:26.167Z,99301.97
2018-03-28T16:28:52.559Z,99315.47
2018-03-28T16:31:18.973Z,99315.08
2018-03-28T16:33:45.393Z,99319.96
2018-03-28T16:36:11.819Z,99316.37
2018-03-28T16:38:38.261Z,99320.33
2018-03-28T16:41:04.746Z,99312.69
2018-03-28T16:43:31.149Z,99326.35
2018-03-28T16:45:57.610Z,99319.17
2018-03-28T16:48:24.118Z,99315.69
2018-03-28T16:50:50.602Z,99312.41
2018-03-28T16:53:16.989Z,99310.79
2018-03-28T16:55:43.429Z,99315.61
2018-03-28T16:58:09.848Z,99314.15
2018-03-28T17:00:36.297Z,99315.45
2018-03-28T17:03:02.765Z,99304.60
2018-03-28T17:05:29.145Z,99311.16
2018-03-28T17:07:55.554Z,99315.89
2018-03-28T17:10:22.014Z,99314.20
2018-03-28T17:12:48.518Z,99312.02
2018-03-28T17:15:14.970Z,99306.39
2018-03-28T17:17:41.423Z,99307.50
2018-03-28T17:20:07.865Z,99302.80
2018-03-28T17:22:34.242Z,99304.17
2018-03-28T17:25:00.634Z,99305.56
2018-03-28T17:27:27.123Z,99315.28
2018-03-28T17:29:53.565Z,99316.90
2018-03-28T17:32:19.958Z,99321.98
2018-03-28T17:34:46.401Z,99318.22
2018-03-28T17:37:12.800Z,99326.11
2018-03-28T17:39:39.222Z,99323.17
2018-03-28T17:42:05.654Z,99327.94
2018-03-28T17:44:32.998Z,99324.17
2018-03-28T17:46:59.442Z,99325.13
2018-03-28T17:49:25.797Z,99326.47
2018-03-28T17:51:52.318Z,99331.91
2018-03-28T17:54:18.694Z,99329.77
2018-03-28T17:56:45.061Z,99342.60
2018-03-28T17:59:11.494Z,99341.53
2018-03-28T18:01:37.902Z,99340.33
2018-03-28T18:04:04.381Z,99337.60
2018-03-28T18:06:30.795Z,99337.55
2018-03-28T18:08:57.390Z,99337.15
2018-03-28T18:11:23.766Z,99334.26
2018-03-28T18:13:50.253Z,99339.63
2018-03-28T18:16:17.162Z,99347.16
2018-03-28T18:18:44.777Z,99347.16
2018-03-28T18:21:11.150Z,99349.71
2018-03-28T18:23:37.559Z,99355.29
2018-03-28T18:26:04.049Z,99358.44
2018-03-28T18:28:30.567Z,99361.84
2018-03-28T18:30:57.025Z,99365.02
2018-03-28T18:33:23.443Z,99369.37
2018-03-28T18:35:49.820Z,99360.47
2018-03-28T18:38:16.351Z,99362.05
2018-03-28T18:40:42.748Z,99358.73
2018-03-28T18:43:09.174Z,99358.34
2018-03-28T18:45:35.595Z,99359.45
2018-03-28T18:48:01.995Z,99351.67
2018-03-28T18:50:28.559Z,99348.61
2018-03-28T18:52:54.979Z,99350.98
2018-03-28T18:55:21.641Z,99350.06
2018-03-28T18:57:48.078Z,99352.41
2018-03-28T19:00:14.549Z,99353.52
2018-03-28T19:02:40.945Z,99354.30
2018-03-28T19:05:07.333Z,99346.50
2018-03-28T19:07:33.841Z,99343.00
2018-03-28T19:10:00.246Z,99334.20
2018-03-28T19:12:26.691Z,99325.67
2018-03-28T19:14:53.165Z,99325.46
2018-03-28T19:17:19.616Z,99326.59
2018-03-28T19:19:46.129Z,99328.36
2018-03-28T19:22:12.545Z,99334.67
2018-03-28T19:24:38.993Z,99333.82
2018-03-28T19:27:05.428Z,99334.56
2018-03-28T19:29:31.909Z,99330.20
2018-03-28T19:31:58.341Z,99329.39
2018-03-28T19:34:24.766Z,99330.33
2018-03-28T19:36:51.213Z,99326.09
2018-03-28T19:39:17.637Z,99322.76
2018-03-28T19:41:44.051Z,99325.18
2018-03-28T19:44:11.135Z,99328.61
2018-03-28T19:46:37.552Z,99322.09
2018-03-28T19:49:03.953Z,99325.59
2018-03-28T19:51:30.376Z,99324.59
2018-03-28T19:53:56.793Z,99318.17
2018-03-28T19:56:23.217Z,99312.16
2018-03-28T19:58:49.661Z,99311.06
2018-03-28T20:01:16.050Z,99312.12
2018-03-28T20:03:42.500Z,99308.78
2018-03-28T20:06:08.984Z,99308.64
2018-03-28T20:08:35.357Z,99307.78
2018-03-28T20:11:02.576Z,99306.38
2018-03-28T20:13:29.857Z,99306.36
2018-03-28T20:15:57.438Z,99313.68
2018-03-28T20:18:24.062Z,99326.42
2018-03-28T20:20:50.426Z,99325.97
2018-03-28T20:23:16.964Z,99328.63
2018-03-28T20:25:43.458Z,99331.80
2018-03-28T20:28:09.873Z,99337.63
2018-03-28T20:30:36.253Z,99336.33
2018-03-28T20:33:02.834Z,99339.02
2018-03-28T20:35:29.307Z,99336.97
2018-03-28T20:37:55.705Z,99346.17
2018-03-28T20:40:22.186Z,99350.80
2018-03-28T20:42:48.609Z,99356.91
2018-03-28T20:45:15.094Z,99367.33
2018-03-28T20:47:41.457Z,99364.84
2018-03-28T20:50:07.902Z,99370.23
2018-03-28T20:52:34.294Z,99364.28
2018-03-28T20:55:00.694Z,99363.45
2018-03-28T20:57:27.103Z,99351.72
2018-03-28T20:59:53.580Z,99346.39
2018-03-28T21:02:19.990Z,99348.58
2018-03-28T21:04:46.538Z,99358.11
2018-03-28T21:07:12.921Z,99356.94
2018-03-28T21:09:39.323Z,99364.19
2018-03-28T21:12:05.694Z,99353.84
2018-03-28T21:14:32.106Z,99348.84
2018-03-28T21:16:58.481Z,99343.84
2018-03-28T21:19:24.843Z,99335.29
2018-03-28T21:21:51.416Z,99336.00
2018-03-28T21:24:17.789Z,99333.33
2018-03-28T21:26:44.153Z,99343.84
2018-03-28T21:29:10.518Z,99339.22
2018-03-28T21:31:36.913Z,99334.98
2018-03-28T21:34:03.306Z,99330.91
2018-03-28T21:36:29.775Z,99321.39
2018-03-28T21:38:56.349Z,99308.11
2018-03-28T21:41:22.722Z,99300.20
2018-03-28T21:43:49.104Z,99283.59
2018-03-28T21:46:15.473Z,99284.80
2018-03-28T21:48:41.838Z,99289.15
2018-03-28T21:51:08.213Z,99284.44
2018-03-28T21:53:34.601Z,99284.59
2018-03-28T21:56:00.965Z,99288.70
2018-03-28T21:58:27.330Z,99292.51
2018-03-28T22:00:53.720Z,99298.34
2018-03-28T22:03:20.117Z,99300.09
2018-03-28T22:05:46.494Z,99297.20
2018-03-28T22:08:12.877Z,99297.58
2018-03-28T22:10:39.301Z,99294.55
2018-03-28T22:13:05.665Z,99291.59
2018-03-28T22:15:32.017Z,99285.99
2018-03-28T22:17:58.381Z,99275.25
2018-03-28T22:20:24.749Z,99267.47
2018-03-28T22:22:51.133Z,99251.92
2018-03-28T22:25:17.546Z,99251.47
2018-03-28T22:27:44.238Z,99241.18
2018-03-28T22:30:10.748Z,99240.17
2018-03-28T22:32:37.206Z,99236.73
2018-03-28T22:35:03.585Z,99224.50
2018-03-28T22:37:30.008Z,99213.52
2018-03-28T22:39:56.445Z,99211.99
2018-03-28T22:42:22.801Z,99210.17
2018-03-28T22:44:49.156Z,99197.92
2018-03-28T22:47:15.560Z,99184.17
2018-03-28T22:49:41.906Z,99174.86
2018-03-28T22:52:08.285Z,99168.26
2018-03-28T22:54:34.634Z,99168.88
2018-03-28T22:57:01.010Z,99171.16
2018-03-28T22:59:27.386Z,99178.35
2018-03-28T23:01:53.750Z,99178.45
2018-03-28T23:04:20.122Z,99190.36
2018-03-28T23:06:46.490Z,99192.80
2018-03-28T23:09:12.845Z,99213.20
2018-03-28T23:11:39.239Z,99225.48
2018-03-28T23:14:05.604Z,99230.44
2018-03-28T23:16:32.015Z,99228.05
2018-03-28T23:18:58.378Z,99236.51
2018-03-28T23:21:24.756Z,99231.80
2018-03-28T23:23:51.132Z,99231.22
2018-03-28T23:26:17.506Z,99232.95
2018-03-28T23:28:43.862Z,99235.06
2018-03-28T23:31:10.295Z,99233.19
2018-03-28T23:33:36.698Z,99234.70
2018-03-28T23:36:03.106Z,99223.63
2018-03-28T23:38:29.513Z,99228.66
2018-03-28T23:40:56.005Z,99229.02
2018-03-28T23:43:22.368Z,99234.06
2018-03-28T23:45:48.877Z,99235.02
2018-03-28T23:48:15.246Z,99241.55
2018-03-28T23:50:41.777Z,99244.63
2018-03-28T23:53:08.198Z,99242.89
2018-03-28T23:55:34.582Z,99248.16
2018-03-28T23:58:00.960Z,99243.80
